Time;durP1;ratioP1;P1;durP2;ratioP2;P2;SDS_P1;SDS_P2;PMS_P1;PMS_P2;Temp;Humidity;BMP_temperature;BMP_pressure;BME280_temperature;BME280_humidity;BME280_pressure;Samples;Min_cycle;Max_cycle;Signal;HPM_P1;HPM_P2
2022/04/10 00:02:11;;;;;;;7.63;2.67;;;9.90;60.90;;;;;;6020578;29;20037;-72
2022/04/10 00:05:12;;;;;;;4.57;2.50;;;9.90;61.10;;;;;;6003372;29;20124;-72
2022/04/10 00:08:13;;;;;;;4.72;2.70;;;9.90;61.10;;;;;;5988092;29;20033;-73
2022/04/10 00:11:14;;;;;;;4.55;2.13;;;9.80;61.20;;;;;;6017805;29;20053;-73
2022/04/10 00:14:15;;;;;;;3.60;1.70;;;9.80;61.10;;;;;;6017946;29;20047;-73
2022/04/10 00:17:16;;;;;;;7.13;2.25;;;9.80;60.90;;;;;;6018433;29;20048;-73
2022/04/10 00:20:18;;;;;;;7.45;3.25;;;9.80;60.90;;;;;;6019689;29;20034;-73
2022/04/10 00:23:19;;;;;;;5.03;3.10;;;9.80;60.90;;;;;;6019534;29;20030;-73
2022/04/10 00:26:19;;;;;;;5.03;3.15;;;9.80;61.10;;;;;;6017961;29;20429;-73
2022/04/10 00:29:20;;;;;;;5.43;3.35;;;9.80;61.20;;;;;;6002587;29;20091;-73
2022/04/10 00:32:28;;;;;;;9.13;3.83;;;9.80;61.40;;;;;;6003841;29;20038;-72
2022/04/10 00:35:29;;;;;;;5.60;3.72;;;9.70;61.50;;;;;;6019212;29;20038;-73
2022/04/10 00:38:30;;;;;;;7.20;3.13;;;9.70;61.60;;;;;;5988651;29;20464;-72
2022/04/10 00:41:31;;;;;;;8.57;3.08;;;9.60;61.70;;;;;;6018376;29;20427;-72
2022/04/10 00:44:34;;;;;;;10.20;3.05;;;9.60;61.70;;;;;;5987781;29;20053;-72
2022/04/10 00:47:35;;;;;;;7.25;3.53;;;9.50;61.80;;;;;;6003961;29;20070;-72
2022/04/10 00:51:39;;;;;;;8.45;3.67;;;9.60;61.90;;;;;;6003730;29;20226;-72
2022/04/10 00:53:57;;;;;;;4.70;3.22;;;9.50;62.00;;;;;;6016220;29;20034;-72
2022/04/10 00:57:00;;;;;;;5.63;3.25;;;9.50;62.00;;;;;;6019270;29;20034;-72
2022/04/10 01:00:03;;;;;;;5.63;2.85;;;9.50;62.10;;;;;;6004274;29;20066;-72
2022/04/10 01:03:04;;;;;;;6.55;3.40;;;9.50;62.10;;;;;;6000672;29;20112;-72
2022/04/10 01:06:05;;;;;;;7.78;3.67;;;9.40;62.20;;;;;;6005546;29;20036;-72
2022/04/10 01:09:07;;;;;;;7.47;4.40;;;9.40;62.20;;;;;;6001041;29;20109;-72
2022/04/10 01:12:08;;;;;;;8.63;4.22;;;9.40;62.20;;;;;;6015916;29;20045;-72
2022/04/10 01:15:09;;;;;;;10.07;4.40;;;9.40;62.40;;;;;;6002326;29;20045;-72
2022/04/10 01:18:15;;;;;;;7.80;3.65;;;9.40;62.40;;;;;;6001008;29;20026;-72
2022/04/10 01:21:25;;;;;;;6.78;3.25;;;9.40;62.40;;;;;;6000714;29;20045;-72
2022/04/10 01:24:28;;;;;;;9.25;3.83;;;9.30;62.60;;;;;;5985331;29;20037;-72
2022/04/10 01:27:29;;;;;;;4.97;2.85;;;9.20;62.60;;;;;;6000721;29;20034;-72
2022/04/10 01:30:30;;;;;;;9.20;3.53;;;9.20;62.70;;;;;;6002179;29;20695;-72
2022/04/10 01:33:31;;;;;;;8.57;3.25;;;9.10;62.80;;;;;;6018411;29;20091;-72
2022/04/10 01:36:34;;;;;;;4.60;2.35;;;9.00;62.90;;;;;;6020440;29;20095;-72
2022/04/10 01:39:35;;;;;;;9.13;2.22;;;9.00;62.90;;;;;;6015421;29;20049;-72
2022/04/10 01:42:36;;;;;;;3.10;2.30;;;8.90;62.80;;;;;;6003305;29;20041;-72
2022/04/10 01:45:37;;;;;;;3.78;2.20;;;8.90;62.80;;;;;;6021647;29;20042;-72
2022/04/10 01:48:39;;;;;;;4.03;1.95;;;8.90;62.70;;;;;;6005470;29;20620;-72
2022/04/10 01:51:40;;;;;;;6.97;3.55;;;8.90;62.70;;;;;;6001484;29;20066;-72
2022/04/10 01:54:41;;;;;;;5.13;3.42;;;8.90;62.80;;;;;;6006128;29;20060;-72
2022/04/10 01:57:42;;;;;;;8.93;3.85;;;8.90;62.90;;;;;;6006136;29;20483;-72
2022/04/10 02:00:43;;;;;;;11.55;3.80;;;8.90;62.90;;;;;;6006344;29;20035;-72
2022/04/10 02:03:48;;;;;;;6.60;3.80;;;8.90;62.80;;;;;;5988287;29;20042;-72
2022/04/10 02:06:49;;;;;;;7.90;3.50;;;8.90;62.80;;;;;;6005762;29;20034;-72
2022/04/10 02:09:50;;;;;;;7.05;3.50;;;8.80;62.80;;;;;;6005113;29;20046;-72
2022/04/10 02:12:51;;;;;;;10.20;2.88;;;8.80;62.80;;;;;;6005457;29;20487;-72
2022/04/10 02:15:52;;;;;;;4.10;2.58;;;8.80;62.90;;;;;;6007294;29;20106;-72
2022/04/10 02:18:53;;;;;;;5.63;2.47;;;8.80;62.90;;;;;;5988733;29;20121;-72
2022/04/10 02:21:57;;;;;;;7.25;2.13;;;8.70;63.80;;;;;;6006013;29;20489;-72
2022/04/10 02:24:58;;;;;;;3.05;2.05;;;8.70;63.00;;;;;;5991127;29;20650;-72
2022/04/10 02:28:00;;;;;;;3.40;1.98;;;8.70;63.80;;;;;;6005735;29;20476;-72
2022/04/10 02:31:02;;;;;;;3.35;1.98;;;8.60;63.10;;;;;;6004216;29;20374;-72
2022/04/10 02:34:04;;;;;;;3.67;2.00;;;8.50;63.20;;;;;;6004231;29;20038;-72
2022/04/10 02:37:06;;;;;;;5.20;2.65;;;8.50;63.30;;;;;;6006574;29;20045;-72
2022/04/10 02:40:07;;;;;;;6.05;2.60;;;8.60;63.40;;;;;;5992255;29;20140;-72
2022/04/10 02:43:10;;;;;;;5.30;2.80;;;8.60;63.30;;;;;;6006995;29;20120;-72
2022/04/10 02:46:11;;;;;;;4.50;2.15;;;8.60;63.30;;;;;;6004468;29;20034;-72
2022/04/10 02:49:17;;;;;;;5.28;2.15;;;8.60;63.30;;;;;;6020063;29;20078;-72
2022/04/10 02:52:18;;;;;;;4.63;3.00;;;8.60;63.30;;;;;;6001188;29;20065;-72
2022/04/10 02:55:19;;;;;;;7.63;3.15;;;8.70;63.30;;;;;;6005954;29;20049;-72
2022/04/10 02:58:20;;;;;;;4.70;2.80;;;8.70;63.30;;;;;;5991336;29;20189;-71
2022/04/10 03:01:21;;;;;;;8.02;3.63;;;8.60;63.10;;;;;;6019758;29;20045;-72
2022/04/10 03:04:22;;;;;;;3.30;2.17;;;8.60;63.10;;;;;;6006248;29;20048;-72
2022/04/10 03:07:24;;;;;;;5.95;3.13;;;8.60;63.30;;;;;;6020580;29;20044;-72
2022/04/10 03:10:25;;;;;;;4.72;2.55;;;8.60;63.20;;;;;;6018798;29;20053;-72
2022/04/10 03:13:28;;;;;;;5.43;2.88;;;8.60;63.20;;;;;;5987506;29;20061;-72
2022/04/10 03:16:30;;;;;;;5.38;3.15;;;8.50;63.30;;;;;;6008076;29;20034;-72
2022/04/10 03:19:31;;;;;;;10.30;4.30;;;8.50;64.10;;;;;;5987958;29;20094;-72
2022/04/10 03:22:32;;;;;;;6.70;2.78;;;8.50;63.30;;;;;;6006807;29;20447;-72
2022/04/10 03:25:33;;;;;;;7.82;3.63;;;8.50;64.20;;;;;;6018952;29;20079;-72
2022/04/10 03:28:34;;;;;;;8.48;3.70;;;8.40;63.40;;;;;;5985798;29;20098;-72
2022/04/10 03:31:35;;;;;;;7.78;4.05;;;8.40;63.50;;;;;;6020491;29;20128;-72
2022/04/10 03:34:36;;;;;;;10.27;3.92;;;8.40;64.40;;;;;;6002565;29;20089;-72
2022/04/10 03:37:37;;;;;;;13.05;4.47;;;8.40;63.70;;;;;;6016536;29;20041;-72
2022/04/10 03:40:38;;;;;;;7.53;4.22;;;8.30;63.70;;;;;;6023211;29;20077;-72
2022/04/10 03:43:39;;;;;;;11.43;4.47;;;8.30;63.70;;;;;;6006710;29;20372;-72
2022/04/10 03:46:40;;;;;;;8.93;3.88;;;8.30;63.70;;;;;;5988432;29;20030;-72
2022/04/10 03:49:42;;;;;;;6.43;3.47;;;8.30;63.60;;;;;;5989770;29;20125;-74
2022/04/10 03:52:43;;;;;;;7.07;3.72;;;8.20;63.60;;;;;;5990760;29;20038;-73
2022/04/10 03:55:45;;;;;;;9.98;4.00;;;8.20;63.70;;;;;;5989611;29;20129;-71
2022/04/10 03:58:46;;;;;;;7.88;4.03;;;8.20;63.90;;;;;;6001841;29;20169;-73
2022/04/10 04:01:49;;;;;;;8.88;3.92;;;8.10;63.80;;;;;;6002111;29;20041;-72
2022/04/10 04:04:51;;;;;;;10.10;4.43;;;8.10;63.90;;;;;;5999858;29;20038;-71
2022/04/10 04:07:52;;;;;;;5.88;3.60;;;8.10;64.00;;;;;;6019792;29;20517;-71
2022/04/10 04:10:54;;;;;;;8.10;4.18;;;8.00;63.80;;;;;;5999951;29;20065;-71
2022/04/10 04:13:56;;;;;;;10.00;4.43;;;8.00;63.80;;;;;;6005190;29;20030;-72
2022/04/10 04:17:00;;;;;;;10.27;5.07;;;7.90;63.90;;;;;;6002239;29;20038;-72
2022/04/10 04:20:03;;;;;;;10.90;4.78;;;7.90;63.90;;;;;;6000644;29;20069;-71
2022/04/10 04:23:06;;;;;;;11.70;4.38;;;7.80;63.90;;;;;;6005061;29;20109;-71
2022/04/10 04:26:07;;;;;;;12.80;5.22;;;7.80;64.00;;;;;;6003360;29;20037;-71
2022/04/10 04:29:08;;;;;;;11.30;4.70;;;7.80;64.10;;;;;;6003531;29;20120;-72
2022/04/10 04:32:09;;;;;;;15.10;5.65;;;7.80;64.20;;;;;;6000833;29;20422;-72
2022/04/10 04:35:12;;;;;;;10.30;5.03;;;7.90;64.20;;;;;;6005483;29;20033;-72
2022/04/10 04:38:14;;;;;;;9.93;5.05;;;7.90;64.10;;;;;;6000788;29;20037;-72
2022/04/10 04:41:16;;;;;;;12.32;5.10;;;8.00;64.10;;;;;;5989661;29;20129;-72
2022/04/10 04:44:17;;;;;;;8.20;4.85;;;8.10;63.90;;;;;;6002822;29;20046;-72
2022/04/10 04:47:19;;;;;;;9.23;4.63;;;8.10;63.80;;;;;;6000112;29;20110;-73
2022/04/10 04:50:23;;;;;;;9.52;4.72;;;8.10;63.70;;;;;;6002454;29;20095;-72
2022/04/10 04:53:24;;;;;;;10.15;4.57;;;8.20;63.80;;;;;;5999826;29;20063;-74
2022/04/10 04:56:26;;;;;;;13.10;5.60;;;8.10;63.60;;;;;;6004637;29;20043;-72
2022/04/10 04:59:27;;;;;;;10.30;4.60;;;8.20;63.70;;;;;;6015888;29;20175;-72
2022/04/10 05:02:30;;;;;;;8.30;4.75;;;8.10;63.60;;;;;;6001952;29;20293;-72
2022/04/10 05:05:31;;;;;;;8.07;4.18;;;8.10;63.70;;;;;;6002110;29;20452;-72
2022/04/10 05:08:41;;;;;;;9.30;4.72;;;8.00;63.80;;;;;;5977445;29;20050;-73
2022/04/10 05:11:45;;;;;;;9.32;4.32;;;8.00;63.80;;;;;;5967854;29;20066;-74
2022/04/10 05:14:46;;;;;;;8.25;3.88;;;8.00;64.10;;;;;;5980836;29;20461;-72
2022/04/10 05:17:48;;;;;;;7.97;4.78;;;8.00;64.10;;;;;;5984256;29;20353;-73
2022/04/10 05:20:49;;;;;;;7.80;4.00;;;8.00;64.20;;;;;;5986065;29;20037;-72
2022/04/10 05:23:52;;;;;;;9.55;4.20;;;8.00;64.30;;;;;;5994299;29;20041;-72
2022/04/10 05:26:55;;;;;;;7.43;4.15;;;8.00;64.30;;;;;;5982200;29;20042;-73
2022/04/10 05:29:56;;;;;;;10.25;4.40;;;8.10;64.20;;;;;;5985345;29;20066;-73
2022/04/10 05:32:58;;;;;;;12.18;4.47;;;8.10;64.20;;;;;;5984625;29;20041;-73
2022/04/10 05:35:59;;;;;;;10.38;4.45;;;8.10;64.10;;;;;;5994079;29;20042;-72
2022/04/10 05:39:02;;;;;;;9.38;4.25;;;8.10;64.10;;;;;;5986554;29;20038;-73
2022/04/10 05:42:07;;;;;;;8.15;4.25;;;8.10;64.00;;;;;;5988173;29;20053;-73
2022/04/10 05:45:09;;;;;;;9.05;5.00;;;8.10;64.00;;;;;;5976441;29;20061;-73
2022/04/10 05:48:14;;;;;;;10.73;5.40;;;8.20;64.00;;;;;;5973539;29;20042;-72
2022/04/10 05:51:15;;;;;;;10.02;5.53;;;8.20;64.00;;;;;;5990501;29;20362;-72
2022/04/10 05:54:16;;;;;;;14.07;5.20;;;8.30;64.00;;;;;;5988787;29;20053;-73
2022/04/10 05:57:22;;;;;;;11.45;5.63;;;8.30;64.00;;;;;;5992613;29;20048;-72
2022/04/10 06:00:25;;;;;;;7.35;4.30;;;8.40;64.00;;;;;;5985882;29;20477;-72
2022/04/10 06:03:38;;;;;;;10.77;4.68;;;8.50;63.70;;;;;;5992359;29;20133;-73
2022/04/10 06:06:43;;;;;;;12.82;6.28;;;8.50;63.50;;;;;;5983665;29;20464;-73
2022/04/10 06:09:51;;;;;;;12.98;4.57;;;8.60;63.40;;;;;;5996271;29;20114;-72
2022/04/10 06:12:52;;;;;;;11.90;5.20;;;8.60;63.30;;;;;;6014972;29;20491;-72
2022/04/10 06:15:53;;;;;;;15.13;5.22;;;8.60;63.30;;;;;;5998144;29;20034;-72
2022/04/10 06:18:56;;;;;;;12.35;5.47;;;8.70;63.10;;;;;;5998489;29;20034;-72
2022/04/10 06:21:58;;;;;;;9.15;5.30;;;8.70;62.80;;;;;;6001801;29;20045;-72
2022/04/10 06:25:17;;;;;;;8.98;5.38;;;8.80;62.70;;;;;;6018267;29;20467;-74
2022/04/10 06:28:18;;;;;;;13.45;5.88;;;8.90;62.50;;;;;;6018223;29;20098;-72
2022/04/10 06:31:37;;;;;;;8.63;4.57;;;8.90;62.40;;;;;;6001303;29;20045;-71
2022/04/10 06:34:40;;;;;;;10.48;5.38;;;9.00;62.30;;;;;;5986200;29;20468;-74
2022/04/10 06:37:43;;;;;;;14.85;5.03;;;9.10;62.30;;;;;;6001156;29;20041;-72
2022/04/10 06:40:47;;;;;;;8.05;4.60;;;9.10;62.20;;;;;;6002009;29;20375;-72
2022/04/10 06:43:48;;;;;;;10.57;5.47;;;9.20;62.20;;;;;;5999735;29;20380;-72
2022/04/10 06:47:01;;;;;;;9.23;4.97;;;9.20;62.00;;;;;;6001153;29;20034;-73
2022/04/10 06:50:08;;;;;;;9.55;4.28;;;9.30;62.10;;;;;;5998874;29;20121;-73
2022/04/10 06:53:10;;;;;;;8.63;4.45;;;9.30;61.90;;;;;;6016884;29;20037;-73
2022/04/10 06:56:29;;;;;;;8.35;4.28;;;9.40;61.70;;;;;;6022602;29;20033;-73
2022/04/10 06:59:30;;;;;;;11.18;4.95;;;9.40;61.40;;;;;;6001432;29;20121;-73
2022/04/10 07:02:33;;;;;;;9.57;5.13;;;9.40;61.20;;;;;;6001501;29;20049;-73
2022/04/10 07:05:36;;;;;;;8.30;4.78;;;9.40;61.00;;;;;;6003995;29;20045;-72
2022/04/10 07:08:42;;;;;;;10.95;5.13;;;9.40;60.80;;;;;;5999468;29;20053;-72
2022/04/10 07:11:45;;;;;;;11.13;5.40;;;9.40;60.80;;;;;;5969323;29;20098;-71
2022/04/10 07:15:03;;;;;;;7.90;4.38;;;9.40;60.80;;;;;;5986499;29;20074;-72
2022/04/10 07:18:05;;;;;;;11.75;5.35;;;9.50;60.80;;;;;;5984575;29;20050;-73
2022/04/10 07:21:07;;;;;;;7.93;4.47;;;9.60;60.80;;;;;;5984736;29;20038;-73
2022/04/10 07:24:10;;;;;;;14.20;6.22;;;9.70;60.80;;;;;;5987746;29;20045;-73
2022/04/10 07:27:17;;;;;;;6.53;3.28;;;9.80;60.70;;;;;;5980128;29;20035;-74
2022/04/10 07:30:30;;;;;;;9.15;4.97;;;9.90;60.30;;;;;;5981589;29;20038;-72
2022/04/10 07:33:37;;;;;;;15.15;6.45;;;10.00;60.00;;;;;;5987735;29;20038;-72
2022/04/10 07:36:49;;;;;;;10.07;4.63;;;10.10;59.90;;;;;;5982619;29;20042;-74
2022/04/10 07:39:50;;;;;;;10.25;4.65;;;10.30;59.70;;;;;;5973834;29;20034;-74
2022/04/10 07:42:59;;;;;;;12.65;5.32;;;10.40;59.20;;;;;;5986214;29;20050;-72
2022/04/10 07:49:44;;;;;;;6.40;3.83;;;10.70;58.80;;;;;;5984173;29;20335;-72
2022/04/10 07:52:46;;;;;;;6.90;4.32;;;10.80;58.50;;;;;;5979756;29;20037;-73
2022/04/10 07:56:00;;;;;;;7.50;4.15;;;11.00;58.20;;;;;;5975293;29;20090;-73
2022/04/10 07:59:01;;;;;;;8.52;3.63;;;11.10;57.50;;;;;;5987454;29;20049;-73
2022/04/10 08:02:10;;;;;;;10.88;3.70;;;11.20;57.30;;;;;;5985892;29;20048;-73
2022/04/10 08:05:15;;;;;;;7.45;3.83;;;11.30;57.00;;;;;;5984778;29;20045;-74
2022/04/10 08:08:35;;;;;;;11.70;3.63;;;11.40;56.70;;;;;;6002720;29;20080;-75
2022/04/10 08:11:36;;;;;;;8.65;4.10;;;11.50;56.30;;;;;;6000409;29;20106;-74
2022/04/10 08:14:37;;;;;;;4.38;2.90;;;11.70;56.30;;;;;;6017153;29;20112;-74
2022/04/10 08:17:38;;;;;;;5.70;3.58;;;11.80;55.80;;;;;;6016082;29;20042;-74
2022/04/10 08:20:39;;;;;;;9.00;3.70;;;11.90;55.40;;;;;;5997571;29;20087;-74
2022/04/10 08:23:40;;;;;;;10.18;3.97;;;12.10;55.10;;;;;;6000424;29;20306;-75
2022/04/10 08:26:41;;;;;;;7.05;3.65;;;12.20;54.60;;;;;;6004505;29;20056;-74
2022/04/10 08:29:42;;;;;;;5.55;3.30;;;12.20;54.00;;;;;;6013330;29;20122;-74
2022/04/10 08:32:44;;;;;;;4.55;2.75;;;12.30;54.00;;;;;;6018994;29;20463;-73
2022/04/10 08:35:45;;;;;;;5.07;2.83;;;12.40;53.40;;;;;;5999551;29;20085;-74
2022/04/10 08:38:47;;;;;;;6.97;3.10;;;12.40;52.90;;;;;;5999910;29;20525;-73
2022/04/10 08:41:50;;;;;;;5.43;2.53;;;12.50;53.00;;;;;;6001502;29;20422;-73
2022/04/10 08:44:56;;;;;;;5.90;2.67;;;12.60;52.50;;;;;;6017271;29;20322;-73
2022/04/10 08:47:57;;;;;;;4.82;2.47;;;12.60;52.30;;;;;;6001067;29;20487;-74
2022/04/10 08:50:59;;;;;;;7.72;3.08;;;12.80;52.30;;;;;;6000161;29;20037;-73
2022/04/10 08:54:01;;;;;;;3.75;2.20;;;12.90;51.80;;;;;;6020304;29;20107;-73
2022/04/10 08:57:03;;;;;;;8.40;2.92;;;13.10;51.40;;;;;;6011355;29;20494;-73
2022/04/10 09:00:04;;;;;;;4.80;2.17;;;13.20;51.00;;;;;;6004328;29;20121;-73
2022/04/10 09:03:05;;;;;;;4.40;2.47;;;13.40;50.90;;;;;;6007999;29;20038;-73
2022/04/10 09:06:10;;;;;;;4.45;2.28;;;13.50;50.30;;;;;;6021890;29;20030;-73
2022/04/10 09:09:13;;;;;;;17.73;6.82;;;13.50;49.40;;;;;;5998840;29;20045;-74
2022/04/10 09:12:14;;;;;;;8.27;2.92;;;13.50;48.80;;;;;;5994246;29;20041;-74
2022/04/10 09:15:15;;;;;;;4.03;2.38;;;13.50;48.70;;;;;;5984466;29;20459;-74
2022/04/10 09:18:16;;;;;;;2.60;1.63;;;13.50;48.90;;;;;;5989799;29;20037;-74
2022/04/10 09:21:19;;;;;;;2.50;1.65;;;13.60;49.00;;;;;;5984568;29;20130;-74
2022/04/10 09:24:20;;;;;;;5.03;1.70;;;13.70;48.80;;;;;;6011551;29;20042;-74
2022/04/10 09:27:33;;;;;;;4.13;1.80;;;13.80;48.50;;;;;;6000510;29;20097;-73
2022/04/10 09:30:35;;;;;;;4.30;1.60;;;13.90;48.20;;;;;;6002552;29;20141;-74
2022/04/10 09:33:52;;;;;;;5.57;2.30;;;14.00;47.90;;;;;;6011030;29;20088;-75
2022/04/10 09:37:03;;;;;;;1.60;1.30;;;14.00;47.20;;;;;;5981017;29;20364;-74
2022/04/10 09:40:32;;;;;;;3.10;2.17;;;14.00;46.40;;;;;;5996187;29;20401;-74
2022/04/10 09:43:33;;;;;;;3.97;1.70;;;14.00;46.50;;;;;;5981506;29;20396;-73
2022/04/10 09:46:34;;;;;;;13.30;4.78;;;14.10;46.50;;;;;;5999760;29;20049;-75
2022/04/10 09:49:39;;;;;;;16.88;7.65;;;14.20;46.50;;;;;;5984470;29;20038;-73
2022/04/10 09:52:40;;;;;;;3.00;1.90;;;14.30;45.20;;;;;;6000462;29;20369;-73
2022/04/10 09:55:42;;;;;;;10.00;3.22;;;14.30;44.70;;;;;;5986833;29;20038;-74
2022/04/10 09:58:45;;;;;;;3.58;2.08;;;14.30;44.90;;;;;;5984570;29;20034;-73
2022/04/10 10:01:47;;;;;;;3.58;1.73;;;14.40;44.60;;;;;;5987387;29;20050;-74
2022/04/10 10:04:48;;;;;;;2.50;0.93;;;14.50;44.00;;;;;;6000523;29;20042;-73
2022/04/10 10:07:49;;;;;;;1.50;0.90;;;14.60;43.80;;;;;;5991994;29;20126;-74
2022/04/10 10:10:51;;;;;;;2.92;0.90;;;14.70;43.50;;;;;;6000462;29;20050;-73
2022/04/10 10:13:52;;;;;;;0.70;0.70;;;14.70;43.60;;;;;;6001289;29;20046;-73
2022/04/10 10:16:54;;;;;;;2.75;1.05;;;14.70;42.90;;;;;;6012503;29;20040;-74
2022/04/10 10:19:56;;;;;;;2.88;1.80;;;14.80;42.80;;;;;;6001173;29;20053;-73
2022/04/10 10:23:01;;;;;;;9.55;4.53;;;14.80;42.80;;;;;;6011913;29;21561;-73
2022/04/10 10:26:01;;;;;;;23.92;9.40;;;15.00;42.90;;;;;;5999759;29;20065;-73
2022/04/10 10:29:24;;;;;;;28.30;10.82;;;15.00;42.50;;;;;;6019263;29;20052;-74
2022/04/10 10:32:43;;;;;;;13.98;6.43;;;15.10;42.70;;;;;;6001334;29;20074;-74
2022/04/10 10:35:49;;;;;;;9.82;3.97;;;15.20;42.60;;;;;;6008174;29;20044;-73
2022/04/10 10:38:55;;;;;;;4.97;2.35;;;15.30;42.30;;;;;;6011003;29;20086;-74
2022/04/10 10:42:09;;;;;;;3.40;1.77;;;15.40;42.60;;;;;;6013075;29;20117;-73
2022/04/10 10:45:11;;;;;;;4.00;1.40;;;15.70;42.10;;;;;;5993913;29;20420;-74
2022/04/10 10:48:33;;;;;;;2.00;1.10;;;16.10;41.00;;;;;;5999948;29;20391;-75
2022/04/10 10:51:38;;;;;;;1.67;1.33;;;16.50;39.90;;;;;;6011249;29;20038;-74
2022/04/10 10:54:54;;;;;;;4.88;1.02;;;17.00;38.90;;;;;;5999692;29;20080;-74
2022/04/10 10:58:06;;;;;;;4.60;1.05;;;17.50;38.40;;;;;;5980422;29;20042;-73
2022/04/10 11:01:08;;;;;;;4.47;2.33;;;17.90;37.80;;;;;;6002147;29;20456;-73
2022/04/10 11:04:10;;;;;;;6.30;3.10;;;18.30;36.70;;;;;;6008631;29;20043;-73
2022/04/10 11:07:19;;;;;;;9.70;3.30;;;18.70;36.30;;;;;;5996551;29;20056;-73
2022/04/10 11:10:20;;;;;;;1.88;1.08;;;19.00;35.00;;;;;;6007167;29;20053;-73
2022/04/10 11:13:21;;;;;;;6.32;2.78;;;19.30;34.40;;;;;;5997721;29;20049;-73
2022/04/10 11:16:23;;;;;;;2.25;1.48;;;19.50;33.70;;;;;;5999704;29;20046;-73
2022/04/10 11:19:24;;;;;;;7.72;2.78;;;19.70;32.80;;;;;;6000493;29;20053;-73
2022/04/10 11:22:31;;;;;;;1.20;0.82;;;19.90;32.10;;;;;;6000426;29;20042;-73
2022/04/10 11:25:39;;;;;;;7.82;2.53;;;20.10;31.50;;;;;;6000478;29;20056;-73
2022/04/10 11:29:06;;;;;;;1.17;0.90;;;20.30;30.50;;;;;;5999375;29;20053;-73
2022/04/10 11:32:17;;;;;;;17.23;6.82;;;20.30;30.60;;;;;;5997627;29;20042;-73
2022/04/10 11:35:28;;;;;;;1.15;0.93;;;20.50;29.90;;;;;;5970538;29;20045;-74
2022/04/10 11:38:29;;;;;;;1.10;0.77;;;20.50;29.50;;;;;;5994587;29;20047;-73
2022/04/10 11:41:30;;;;;;;0.98;0.77;;;20.50;29.00;;;;;;6013511;29;20045;-73
2022/04/10 11:44:32;;;;;;;0.90;0.70;;;20.50;29.50;;;;;;5997448;29;20499;-73
2022/04/10 11:47:35;;;;;;;2.05;0.90;;;20.70;29.90;;;;;;5996483;29;20120;-75
2022/04/10 11:50:37;;;;;;;1.77;1.02;;;21.10;29.60;;;;;;6000688;29;20468;-73
2022/04/10 11:53:37;;;;;;;1.13;0.73;;;21.30;29.50;;;;;;5998293;29;20129;-74
2022/04/10 11:56:39;;;;;;;1.27;0.70;;;21.60;29.00;;;;;;6000054;29;20038;-74
2022/04/10 11:59:43;;;;;;;0.52;0.52;;;21.80;29.00;;;;;;5991981;29;20129;-74
2022/04/10 12:02:43;;;;;;;0.77;0.70;;;22.10;28.10;;;;;;6015869;29;20113;-74
2022/04/10 12:05:45;;;;;;;0.52;0.50;;;22.40;28.10;;;;;;5986226;29;20424;-74
2022/04/10 12:08:48;;;;;;;1.58;0.80;;;22.80;27.50;;;;;;6012625;29;20046;-74
2022/04/10 12:11:49;;;;;;;1.58;0.73;;;23.20;26.80;;;;;;6013486;29;20468;-75
2022/04/10 12:14:49;;;;;;;1.63;0.90;;;23.70;26.30;;;;;;6007905;29;20128;-75
2022/04/10 12:18:03;;;;;;;3.10;0.93;;;24.10;25.70;;;;;;5998537;29;20053;-74
2022/04/10 12:21:04;;;;;;;1.77;1.10;;;24.70;25.00;;;;;;5994236;29;20037;-74
2022/04/10 12:24:06;;;;;;;1.17;0.80;;;25.20;24.60;;;;;;6009852;29;20048;-73
2022/04/10 12:27:08;;;;;;;0.57;0.57;;;25.70;24.40;;;;;;5996738;29;20045;-75
2022/04/10 12:30:11;;;;;;;2.13;1.23;;;26.30;23.80;;;;;;6012671;29;20128;-74
2022/04/10 12:33:12;;;;;;;1.00;0.85;;;26.60;23.20;;;;;;5997666;29;20145;-73
2022/04/10 12:36:17;;;;;;;1.67;0.75;;;27.10;22.90;;;;;;5991247;29;20056;-75
2022/04/10 12:39:29;;;;;;;1.33;0.70;;;27.70;22.60;;;;;;6011993;29;20058;-75
2022/04/10 12:42:42;;;;;;;0.73;0.63;;;28.30;21.60;;;;;;6019599;29;20058;-75
2022/04/10 12:45:44;;;;;;;1.48;1.10;;;28.50;20.60;;;;;;5996948;29;20045;-75
2022/04/10 12:48:45;;;;;;;5.53;1.90;;;28.70;20.20;;;;;;5996738;29;20470;-73
2022/04/10 12:51:59;;;;;;;2.80;1.50;;;28.80;20.10;;;;;;5985145;29;20419;-73
2022/04/10 12:55:00;;;;;;;2.70;0.80;;;29.30;20.20;;;;;;5996298;29;20109;-74
2022/04/10 12:58:07;;;;;;;0.70;0.70;;;29.80;19.90;;;;;;5999255;29;20110;-75
2022/04/10 13:01:30;;;;;;;2.17;0.68;;;30.30;19.60;;;;;;5982915;29;20037;-73
2022/04/10 13:04:30;;;;;;;0.98;0.80;;;30.90;19.30;;;;;;5997993;29;20052;-73
2022/04/10 13:07:32;;;;;;;1.25;0.90;;;31.30;18.90;;;;;;5999977;29;20053;-73
2022/04/10 13:10:49;;;;;;;1.30;0.80;;;31.70;18.60;;;;;;5993670;29;20050;-73
2022/04/10 13:14:03;;;;;;;1.33;1.23;;;31.90;18.40;;;;;;6001446;29;20045;-73
2022/04/10 13:17:04;;;;;;;1.38;0.65;;;32.20;18.20;;;;;;5996972;29;20073;-74
2022/04/10 13:20:10;;;;;;;2.17;1.15;;;32.50;17.90;;;;;;6016463;29;20133;-74
2022/04/10 13:23:11;;;;;;;1.77;0.70;;;32.70;17.40;;;;;;6001490;29;21697;-74
2022/04/10 13:26:23;;;;;;;3.63;0.90;;;32.70;17.50;;;;;;6001328;29;20058;-74
2022/04/10 13:29:24;;;;;;;1.52;0.68;;;32.90;17.30;;;;;;5999903;29;20038;-74
2022/04/10 13:32:25;;;;;;;1.65;0.77;;;33.20;17.30;;;;;;5999068;29;20428;-74
2022/04/10 13:35:27;;;;;;;2.30;1.15;;;33.40;17.20;;;;;;5997353;29;20038;-73
2022/04/10 13:38:28;;;;;;;1.30;0.90;;;33.70;17.00;;;;;;6000785;29;20074;-74
2022/04/10 13:41:29;;;;;;;0.70;0.52;;;33.80;16.70;;;;;;6016803;29;20195;-74
2022/04/10 13:44:31;;;;;;;1.58;0.88;;;34.00;16.80;;;;;;6004218;29;20064;-74
2022/04/10 13:47:32;;;;;;;2.95;1.20;;;33.80;16.50;;;;;;6014506;29;20098;-74
2022/04/10 13:50:35;;;;;;;1.23;0.75;;;33.50;16.50;;;;;;6017622;29;20055;-73
2022/04/10 13:53:36;;;;;;;1.17;0.70;;;33.70;16.70;;;;;;5998693;29;20464;-73
2022/04/10 13:56:37;;;;;;;0.73;0.70;;;34.00;16.40;;;;;;6000599;29;20110;-73
2022/04/10 13:59:38;;;;;;;1.52;0.57;;;34.40;16.10;;;;;;6018705;29;20105;-73
2022/04/10 14:02:40;;;;;;;1.33;0.73;;;34.80;15.80;;;;;;6002942;29;20050;-75
2022/04/10 14:05:41;;;;;;;5.30;2.90;;;34.60;15.80;;;;;;6017792;29;20142;-72
2022/04/10 14:08:42;;;;;;;2.60;1.35;;;33.60;16.30;;;;;;6002463;29;20042;-72
2022/04/10 14:11:46;;;;;;;2.35;0.75;;;32.20;16.90;;;;;;6000907;29;20054;-72
2022/04/10 14:14:46;;;;;;;1.05;0.77;;;30.80;17.50;;;;;;6000605;29;20047;-72
2022/04/10 14:17:50;;;;;;;1.50;0.80;;;29.50;18.10;;;;;;6017236;29;20060;-73
2022/04/10 14:20:52;;;;;;;0.93;0.80;;;28.40;18.70;;;;;;6004018;29;20054;-71
2022/04/10 14:23:53;;;;;;;1.02;0.70;;;27.40;19.20;;;;;;5998233;29;20100;-72
2022/04/10 14:26:54;;;;;;;1.30;0.98;;;26.40;19.70;;;;;;6003801;29;20128;-71
2022/04/10 14:29:55;;;;;;;1.83;0.88;;;25.60;20.30;;;;;;6000335;29;20467;-72
2022/04/10 14:32:57;;;;;;;1.40;0.88;;;24.70;20.90;;;;;;6017529;29;20045;-71
2022/04/10 14:36:02;;;;;;;2.33;1.23;;;23.90;21.60;;;;;;6019061;29;20453;-68
2022/04/10 14:39:03;;;;;;;1.70;0.80;;;23.20;22.30;;;;;;6018444;29;20046;-70
2022/04/10 14:42:04;;;;;;;9.65;3.83;;;22.70;22.80;;;;;;6000777;29;20111;-69
2022/04/10 14:45:06;;;;;;;3.40;1.40;;;22.30;23.30;;;;;;6016878;29;20162;-69
2022/04/10 14:48:07;;;;;;;2.95;0.90;;;21.90;23.80;;;;;;6017246;29;20049;-69
2022/04/10 14:51:09;;;;;;;3.45;1.85;;;21.50;24.30;;;;;;6002959;29;20033;-69
2022/04/10 14:54:10;;;;;;;2.55;1.00;;;21.20;24.70;;;;;;6012316;29;20041;-69
2022/04/10 14:57:11;;;;;;;1.67;0.80;;;21.00;25.20;;;;;;6019231;29;20046;-70
2022/04/10 15:00:12;;;;;;;2.88;1.42;;;20.80;25.40;;;;;;6016166;29;20033;-70
2022/04/10 15:03:14;;;;;;;2.20;1.38;;;20.60;25.60;;;;;;5961437;29;20049;-69
2022/04/10 15:06:16;;;;;;;1.02;0.70;;;20.60;25.80;;;;;;6004405;29;20041;-69
2022/04/10 15:09:16;;;;;;;1.77;0.60;;;20.60;26.00;;;;;;6017531;29;20038;-70
2022/04/10 15:12:18;;;;;;;5.50;1.00;;;20.60;26.00;;;;;;6017694;29;20037;-69
2022/04/10 15:15:18;;;;;;;2.47;0.65;;;20.60;26.00;;;;;;6019466;29;20053;-69
2022/04/10 15:18:21;;;;;;;2.00;0.73;;;20.50;26.10;;;;;;6003660;29;20038;-69
2022/04/10 15:21:22;;;;;;;1.80;0.85;;;20.40;26.20;;;;;;6017610;29;20067;-69
2022/04/10 15:24:23;;;;;;;0.68;0.60;;;20.40;26.40;;;;;;6020443;29;20034;-70
2022/04/10 15:27:24;;;;;;;1.95;0.70;;;20.40;26.60;;;;;;5998353;29;20744;-69
2022/04/10 15:30:25;;;;;;;1.50;0.70;;;20.40;26.90;;;;;;5987661;29;20042;-69
2022/04/10 15:33:26;;;;;;;1.48;0.80;;;20.30;27.10;;;;;;6018386;29;20042;-70
2022/04/10 15:36:27;;;;;;;1.30;0.90;;;20.30;27.10;;;;;;6011849;29;20039;-71
2022/04/10 15:39:28;;;;;;;1.30;0.77;;;20.30;27.10;;;;;;5995658;29;20065;-72
2022/04/10 15:42:30;;;;;;;1.25;0.80;;;20.30;27.10;;;;;;6015689;29;20095;-72
2022/04/10 15:45:31;;;;;;;0.80;0.60;;;20.40;27.20;;;;;;6016567;29;20042;-73
2022/04/10 15:48:32;;;;;;;0.88;0.50;;;20.40;27.10;;;;;;6016852;29;20086;-72
2022/04/10 15:51:34;;;;;;;0.65;0.65;;;20.40;27.10;;;;;;5985767;29;20095;-72
2022/04/10 15:54:36;;;;;;;7.53;0.80;;;20.50;27.10;;;;;;6009173;29;20060;-72
2022/04/10 15:57:38;;;;;;;1.33;0.80;;;20.50;27.20;;;;;;5994783;29;20049;-73
2022/04/10 16:00:39;;;;;;;2.65;0.57;;;20.70;27.20;;;;;;5999203;29;20041;-72
2022/04/10 16:03:40;;;;;;;1.65;0.60;;;21.00;27.10;;;;;;5998250;29;20484;-72